createdAt,value
2022-11-17T00:01:17.200Z,100.00
2022-11-17T00:03:43.748Z,100.00
2022-11-17T00:06:10.271Z,100.00
2022-11-17T00:08:36.806Z,100.00
2022-11-17T00:11:03.786Z,100.00
2022-11-17T00:13:48.771Z,100.00
2022-11-17T00:16:16.325Z,100.00
2022-11-17T00:19:01.248Z,100.00
2022-11-17T00:21:28.913Z,100.00
2022-11-17T00:23:55.616Z,100.00
2022-11-17T00:26:23.509Z,100.00
2022-11-17T00:28:57.564Z,100.00
2022-11-17T00:31:43.943Z,100.00
2022-11-17T00:34:15.314Z,100.00
2022-11-17T00:36:46.528Z,100.00
2022-11-17T00:39:13.653Z,100.00
2022-11-17T00:41:40.363Z,100.00
2022-11-17T00:44:07.244Z,100.00
2022-11-17T00:46:34.459Z,100.00
2022-11-17T00:49:00.957Z,100.00
2022-11-17T00:51:27.701Z,100.00
2022-11-17T00:53:54.243Z,100.00
2022-11-17T00:56:20.715Z,100.00
2022-11-17T00:58:47.524Z,100.00
2022-11-17T01:01:14.413Z,100.00
2022-11-17T01:03:41.259Z,100.00
2022-11-17T01:06:09.704Z,100.00
2022-11-17T01:08:36.219Z,100.00
2022-11-17T01:11:10.187Z,100.00
2022-11-17T01:13:38.092Z,100.00
2022-11-17T01:16:06.399Z,100.00
2022-11-17T01:18:33.095Z,100.00
2022-11-17T01:21:09.844Z,100.00
2022-11-17T01:23:37.397Z,100.00
2022-11-17T01:26:08.932Z,100.00
2022-11-17T01:28:36.081Z,100.00
2022-11-17T01:31:03.873Z,100.00
2022-11-17T01:33:32.783Z,100.00
2022-11-17T01:36:04.457Z,100.00
2022-11-17T01:38:31.827Z,100.00
2022-11-17T01:40:59.572Z,100.00
2022-11-17T01:43:55.238Z,100.00
2022-11-17T01:46:31.038Z,100.00
2022-11-17T01:49:20.651Z,100.00
2022-11-17T01:51:50.507Z,100.00
2022-11-17T01:54:20.825Z,100.00
2022-11-17T01:56:50.169Z,100.00
2022-11-17T01:59:21.616Z,100.00
2022-11-17T02:01:57.200Z,100.00
2022-11-17T02:04:33.307Z,100.00
2022-11-17T02:07:03.462Z,100.00
2022-11-17T02:09:30.062Z,100.00
2022-11-17T02:11:58.040Z,100.00
2022-11-17T02:14:24.612Z,100.00
2022-11-17T02:16:51.416Z,100.00
2022-11-17T02:19:19.496Z,100.00
2022-11-17T02:22:01.262Z,100.00
2022-11-17T02:24:33.658Z,100.00
2022-11-17T02:27:19.047Z,100.00
2022-11-17T02:29:48.383Z,100.00
2022-11-17T02:32:24.251Z,100.00
2022-11-17T02:34:57.804Z,100.00
2022-11-17T02:37:24.261Z,100.00
2022-11-17T02:40:02.764Z,100.00
2022-11-17T02:43:00.349Z,100.00
2022-11-17T02:45:39.321Z,100.00
2022-11-17T02:48:10.397Z,100.00
2022-11-17T02:50:38.453Z,100.00
2022-11-17T02:53:05.220Z,100.00
2022-11-17T02:55:34.277Z,100.00
2022-11-17T02:58:00.783Z,100.00
2022-11-17T03:00:28.215Z,100.00
2022-11-17T03:03:03.761Z,100.00
2022-11-17T03:05:43.331Z,100.00
2022-11-17T03:08:34.054Z,100.00
2022-11-17T03:11:02.814Z,100.00
2022-11-17T03:13:39.492Z,100.00
2022-11-17T03:16:24.836Z,100.00
2022-11-17T03:18:57.374Z,100.00
2022-11-17T03:21:29.967Z,100.00
2022-11-17T03:24:04.207Z,100.00
2022-11-17T03:26:35.999Z,100.00
2022-11-17T03:29:04.836Z,100.00
2022-11-17T03:31:32.402Z,100.00
2022-11-17T03:33:59.685Z,100.00
2022-11-17T03:36:29.963Z,100.00
2022-11-17T03:39:12.176Z,100.00
2022-11-17T03:41:42.262Z,100.00
2022-11-17T03:44:09.241Z,100.00
2022-11-17T03:46:38.159Z,100.00
2022-11-17T03:49:04.643Z,100.00
2022-11-17T03:51:33.183Z,100.00
2022-11-17T03:54:00.400Z,100.00
2022-11-17T03:56:39.174Z,100.00
2022-11-17T03:59:08.627Z,100.00
2022-11-17T04:01:35.519Z,100.00
2022-11-17T04:04:02.150Z,100.00
2022-11-17T04:06:28.778Z,100.00
2022-11-17T04:08:55.308Z,100.00
2022-11-17T04:11:40.702Z,100.00
2022-11-17T04:14:25.863Z,100.00
2022-11-17T04:16:52.434Z,100.00
2022-11-17T04:19:18.934Z,100.00
2022-11-17T04:21:45.414Z,100.00
2022-11-17T04:24:11.949Z,100.00
2022-11-17T04:26:57.034Z,100.00
2022-11-17T04:29:23.567Z,100.00
2022-11-17T04:31:50.535Z,100.00
2022-11-17T04:34:17.013Z,100.00
2022-11-17T04:36:43.521Z,100.00
2022-11-17T04:39:10.707Z,100.00
2022-11-17T04:41:57.258Z,100.00
2022-11-17T04:44:25.367Z,100.00
2022-11-17T04:46:52.324Z,100.00
2022-11-17T04:49:19.531Z,100.00
2022-11-17T04:51:46.347Z,100.00
2022-11-17T04:54:13.806Z,100.00
2022-11-17T04:56:40.641Z,100.00
2022-11-17T04:59:07.468Z,100.00
2022-11-17T05:01:34.368Z,100.00
2022-11-17T05:04:02.094Z,100.00
2022-11-17T05:06:29.760Z,100.00
2022-11-17T05:08:56.780Z,100.00
2022-11-17T05:11:45.449Z,100.00
2022-11-17T05:14:12.926Z,100.00
2022-11-17T05:16:58.006Z,100.00
2022-11-17T05:19:26.461Z,100.00
2022-11-17T05:21:53.224Z,100.00
2022-11-17T05:24:19.842Z,100.00
2022-11-17T05:26:47.040Z,100.00
2022-11-17T05:29:15.236Z,100.00
2022-11-17T05:31:41.913Z,100.00
2022-11-17T05:34:09.365Z,100.00
2022-11-17T05:36:35.894Z,100.00
2022-11-17T05:39:02.952Z,100.00
2022-11-17T05:41:29.565Z,100.00
2022-11-17T05:43:56.787Z,100.00
2022-11-17T05:46:23.695Z,100.00
2022-11-17T05:48:50.707Z,100.00
2022-11-17T05:51:18.391Z,100.00
2022-11-17T05:53:44.997Z,100.00
2022-11-17T05:56:30.385Z,100.00
2022-11-17T05:59:15.101Z,100.00
2022-11-17T06:01:44.065Z,100.00
2022-11-17T06:04:11.190Z,100.00
2022-11-17T06:06:37.751Z,100.00
2022-11-17T06:09:04.726Z,100.00
2022-11-17T06:11:31.305Z,100.00
2022-11-17T06:13:57.810Z,100.00
2022-11-17T06:16:27.388Z,100.00
2022-11-17T06:18:56.140Z,100.00
2022-11-17T06:21:22.794Z,100.00
2022-11-17T06:23:50.488Z,100.00
2022-11-17T06:26:17.186Z,100.00
2022-11-17T06:28:45.071Z,100.00
2022-11-17T06:31:12.030Z,100.00
2022-11-17T06:33:38.998Z,100.00
2022-11-17T06:36:07.044Z,100.00
2022-11-17T06:38:35.813Z,100.00
2022-11-17T06:41:07.394Z,100.00
2022-11-17T06:43:37.404Z,100.00
2022-11-17T06:46:04.788Z,100.00
2022-11-17T06:48:35.435Z,100.00
2022-11-17T06:51:03.692Z,100.00
2022-11-17T06:53:30.595Z,100.00
2022-11-17T06:56:17.199Z,100.00
2022-11-17T06:58:43.842Z,100.00
2022-11-17T07:01:11.891Z,100.00
2022-11-17T07:03:39.369Z,100.00
2022-11-17T07:06:07.007Z,100.00
2022-11-17T07:08:34.459Z,100.00
2022-11-17T07:11:05.291Z,100.00
2022-11-17T07:13:32.554Z,100.00
2022-11-17T07:16:10.041Z,100.00
2022-11-17T07:18:37.862Z,100.00
2022-11-17T07:21:05.905Z,100.00
2022-11-17T07:23:33.173Z,100.00
2022-11-17T07:26:00.060Z,100.00
2022-11-17T07:28:26.815Z,100.00
2022-11-17T07:30:53.672Z,100.00
2022-11-17T07:33:20.289Z,100.00
2022-11-17T07:35:46.960Z,100.00
2022-11-17T07:38:13.683Z,100.00
2022-11-17T07:40:40.759Z,100.00
2022-11-17T07:43:07.306Z,100.00
2022-11-17T07:45:35.719Z,100.00
2022-11-17T07:48:03.184Z,100.00
2022-11-17T07:50:30.166Z,100.00
2022-11-17T07:52:57.183Z,100.00
2022-11-17T07:55:24.521Z,100.00
2022-11-17T07:57:54.989Z,100.00
2022-11-17T08:00:21.597Z,100.00
2022-11-17T08:02:48.161Z,100.00
2022-11-17T08:05:17.366Z,100.00
2022-11-17T08:07:47.033Z,100.00
2022-11-17T08:10:13.924Z,100.00
2022-11-17T08:12:40.541Z,100.00
2022-11-17T08:15:07.636Z,100.00
2022-11-17T08:17:34.202Z,100.00
2022-11-17T08:20:00.812Z,100.00
2022-11-17T08:22:27.406Z,100.00
2022-11-17T08:24:54.055Z,100.00
2022-11-17T08:27:20.658Z,100.00
2022-11-17T08:29:47.176Z,100.00
2022-11-17T08:32:13.716Z,100.00
2022-11-17T08:34:40.263Z,100.00
2022-11-17T08:37:06.858Z,100.00
2022-11-17T08:39:33.451Z,100.00
2022-11-17T08:42:00.082Z,100.00
2022-11-17T08:44:26.730Z,100.00
2022-11-17T08:46:53.255Z,100.00
2022-11-17T08:49:19.783Z,100.00
2022-11-17T08:51:46.409Z,100.00
2022-11-17T08:54:12.979Z,100.00
2022-11-17T08:56:39.712Z,100.00
2022-11-17T08:59:06.307Z,100.00
2022-11-17T09:01:32.938Z,100.00
2022-11-17T09:03:59.578Z,98.77
2022-11-17T09:06:26.447Z,97.39
2022-11-17T09:08:53.720Z,97.97
2022-11-17T09:11:20.838Z,99.32
2022-11-17T09:13:47.569Z,99.95
2022-11-17T09:16:15.024Z,100.00
2022-11-17T09:18:41.807Z,100.00
2022-11-17T09:21:09.939Z,100.00
2022-11-17T09:23:37.002Z,100.00
2022-11-17T09:26:06.114Z,100.00
2022-11-17T09:28:33.461Z,100.00
2022-11-17T09:31:01.478Z,100.00
2022-11-17T09:33:28.244Z,100.00
2022-11-17T09:35:56.869Z,100.00
2022-11-17T09:38:23.397Z,99.77
2022-11-17T09:40:50.107Z,100.00
2022-11-17T09:43:24.124Z,97.56
2022-11-17T09:45:52.286Z,96.15
2022-11-17T09:48:41.166Z,99.11
2022-11-17T09:51:09.945Z,97.77
2022-11-17T09:53:40.683Z,95.41
2022-11-17T09:56:09.099Z,93.22
2022-11-17T09:58:46.727Z,91.28
2022-11-17T10:01:14.594Z,90.82
2022-11-17T10:03:45.994Z,90.01
2022-11-17T10:06:18.241Z,89.55
2022-11-17T10:08:53.988Z,91.16
2022-11-17T10:11:32.741Z,92.45
2022-11-17T10:14:08.066Z,91.56
2022-11-17T10:16:36.195Z,91.11
2022-11-17T10:19:13.516Z,92.86
2022-11-17T10:21:40.282Z,93.38
2022-11-17T10:24:07.592Z,93.20
2022-11-17T10:26:47.456Z,92.21
2022-11-17T10:29:15.752Z,91.32
2022-11-17T10:31:45.884Z,91.90
2022-11-17T10:34:31.943Z,91.18
2022-11-17T10:37:20.984Z,92.00
2022-11-17T10:39:47.490Z,90.22
2022-11-17T10:42:14.148Z,87.65
2022-11-17T10:44:42.053Z,85.91
2022-11-17T10:47:23.995Z,84.92
2022-11-17T10:50:04.962Z,83.29
2022-11-17T10:52:31.588Z,80.59
2022-11-17T10:55:17.333Z,80.86
2022-11-17T10:57:47.598Z,82.09
2022-11-17T11:00:34.865Z,81.50
2022-11-17T11:03:17.410Z,81.55
2022-11-17T11:06:04.586Z,81.36
2022-11-17T11:08:34.919Z,82.10
2022-11-17T11:11:02.879Z,81.57
2022-11-17T11:13:35.959Z,81.12
2022-11-17T11:16:02.644Z,83.45
2022-11-17T11:18:30.325Z,79.78
2022-11-17T11:21:09.857Z,83.05
2022-11-17T11:23:59.836Z,81.85
2022-11-17T11:26:33.109Z,81.15
2022-11-17T11:29:04.275Z,78.72
2022-11-17T11:31:30.853Z,77.90
2022-11-17T11:34:00.102Z,79.01
2022-11-17T11:36:27.526Z,76.68
2022-11-17T11:38:59.641Z,76.26
2022-11-17T11:41:51.973Z,74.22
2022-11-17T11:44:21.568Z,75.20
2022-11-17T11:46:50.928Z,75.90
2022-11-17T11:49:36.013Z,74.39
2022-11-17T11:52:04.577Z,72.96
2022-11-17T11:54:37.171Z,73.27
2022-11-17T11:57:09.976Z,73.14
2022-11-17T11:59:42.944Z,75.47
2022-11-17T12:02:12.651Z,74.89
2022-11-17T12:05:00.313Z,76.03
2022-11-17T12:07:33.008Z,76.09
2022-11-17T12:10:18.252Z,76.23
2022-11-17T12:12:45.615Z,76.48
2022-11-17T12:15:12.722Z,77.16
2022-11-17T12:17:54.566Z,79.58
2022-11-17T12:20:40.730Z,79.75
2022-11-17T12:23:25.477Z,79.43
2022-11-17T12:25:54.435Z,79.10
2022-11-17T12:28:30.354Z,78.91
2022-11-17T12:31:05.069Z,80.22
2022-11-17T12:33:53.362Z,78.53
2022-11-17T12:36:30.961Z,79.96
2022-11-17T12:39:17.939Z,81.54
2022-11-17T12:41:47.303Z,79.43
2022-11-17T12:44:32.360Z,79.80
2022-11-17T12:47:09.968Z,80.44
2022-11-17T12:49:46.016Z,82.19
2022-11-17T12:52:16.962Z,84.34
2022-11-17T12:54:56.211Z,85.42
2022-11-17T12:57:30.330Z,85.82
2022-11-17T13:00:05.909Z,88.73
2022-11-17T13:02:57.393Z,89.07
2022-11-17T13:05:25.554Z,86.01
2022-11-17T13:08:10.660Z,87.82
2022-11-17T13:10:37.255Z,86.89
2022-11-17T13:13:20.209Z,88.71
2022-11-17T13:15:51.267Z,90.71
2022-11-17T13:18:23.636Z,90.07
2022-11-17T13:20:50.186Z,91.13
2022-11-17T13:23:27.272Z,90.29
2022-11-17T13:26:10.868Z,90.03
2022-11-17T13:28:37.993Z,89.57
2022-11-17T13:31:04.521Z,89.52
2022-11-17T13:33:38.414Z,88.83
2022-11-17T13:36:09.783Z,89.66
2022-11-17T13:38:36.359Z,87.30
2022-11-17T13:41:03.957Z,86.72
2022-11-17T13:43:36.560Z,87.93
2022-11-17T13:46:06.260Z,89.02
2022-11-17T13:48:43.020Z,86.80
2022-11-17T13:51:28.519Z,85.80
2022-11-17T13:54:06.929Z,86.05
2022-11-17T13:56:39.271Z,87.76
2022-11-17T13:59:17.319Z,88.85
2022-11-17T14:01:44.510Z,89.12
2022-11-17T14:04:20.361Z,90.24
2022-11-17T14:06:54.441Z,91.39
2022-11-17T14:09:21.415Z,91.27
2022-11-17T14:11:48.391Z,90.34
2022-11-17T14:14:18.581Z,90.50
2022-11-17T14:16:45.505Z,91.64
2022-11-17T14:19:15.165Z,92.12
2022-11-17T14:21:57.933Z,92.27
2022-11-17T14:24:24.561Z,92.27
2022-11-17T14:26:51.159Z,92.96
2022-11-17T14:29:20.217Z,93.16
2022-11-17T14:31:46.790Z,92.77
2022-11-17T14:34:13.915Z,92.03
2022-11-17T14:36:41.099Z,92.20
2022-11-17T14:39:15.756Z,92.50
2022-11-17T14:41:46.271Z,91.89
2022-11-17T14:44:13.086Z,91.24
2022-11-17T14:46:39.789Z,91.01
2022-11-17T14:49:06.356Z,93.20
2022-11-17T14:51:33.313Z,93.64
2022-11-17T14:53:59.860Z,94.02
2022-11-17T14:56:26.703Z,94.35
2022-11-17T14:58:55.135Z,92.82
2022-11-17T15:01:28.375Z,92.06
2022-11-17T15:03:55.964Z,91.87
2022-11-17T15:06:26.564Z,92.11
2022-11-17T15:08:57.676Z,91.81
2022-11-17T15:11:27.534Z,91.49
2022-11-17T15:13:54.065Z,91.29
2022-11-17T15:16:20.922Z,92.82
2022-11-17T15:18:48.190Z,92.85
2022-11-17T15:21:16.037Z,91.95
2022-11-17T15:23:43.303Z,92.49
2022-11-17T15:26:14.237Z,92.97
2022-11-17T15:28:41.295Z,93.03
2022-11-17T15:31:12.310Z,92.93
2022-11-17T15:33:40.707Z,93.29
2022-11-17T15:36:08.954Z,94.20
2022-11-17T15:38:36.268Z,94.17
2022-11-17T15:41:02.927Z,94.12
2022-11-17T15:43:30.398Z,95.13
2022-11-17T15:46:00.432Z,96.10
2022-11-17T15:48:27.116Z,97.70
2022-11-17T15:50:57.454Z,97.68
2022-11-17T15:53:24.030Z,98.37
2022-11-17T15:55:50.538Z,98.60
2022-11-17T15:58:17.105Z,98.90
2022-11-17T16:00:43.709Z,100.00
2022-11-17T16:03:10.243Z,100.00
2022-11-17T16:05:36.805Z,100.00
2022-11-17T16:08:03.445Z,100.00
2022-11-17T16:10:29.995Z,100.00
2022-11-17T16:12:56.690Z,100.00
2022-11-17T16:15:23.400Z,100.00
2022-11-17T16:17:49.915Z,99.64
2022-11-17T16:20:18.515Z,99.70
2022-11-17T16:22:45.165Z,99.81
2022-11-17T16:25:11.672Z,98.84
2022-11-17T16:27:38.468Z,97.80
2022-11-17T16:30:05.168Z,97.81
2022-11-17T16:32:31.716Z,97.17
2022-11-17T16:34:58.210Z,97.19
2022-11-17T16:37:24.852Z,96.35
2022-11-17T16:39:51.461Z,96.37
2022-11-17T16:42:18.013Z,95.77
2022-11-17T16:44:44.595Z,96.86
2022-11-17T16:47:11.124Z,96.50
2022-11-17T16:49:37.669Z,96.74
2022-11-17T16:52:04.233Z,97.60
2022-11-17T16:54:30.840Z,97.81
2022-11-17T16:56:57.475Z,97.31
2022-11-17T16:59:23.983Z,96.23
2022-11-17T17:01:50.572Z,96.46
2022-11-17T17:04:17.105Z,96.03
2022-11-17T17:06:44.413Z,96.59
2022-11-17T17:09:12.189Z,95.49
2022-11-17T17:11:39.158Z,95.67
2022-11-17T17:14:08.305Z,95.46
2022-11-17T17:16:35.902Z,94.25
2022-11-17T17:19:04.386Z,94.01
2022-11-17T17:21:31.420Z,94.32
2022-11-17T17:23:58.075Z,94.41
2022-11-17T17:26:29.126Z,95.57
2022-11-17T17:28:56.920Z,96.31
2022-11-17T17:31:24.487Z,96.71
2022-11-17T17:33:51.467Z,97.95
2022-11-17T17:36:19.457Z,98.01
2022-11-17T17:38:51.618Z,97.68
2022-11-17T17:41:20.404Z,97.86
2022-11-17T17:43:47.469Z,98.55
2022-11-17T17:46:15.837Z,97.22
2022-11-17T17:48:43.484Z,97.99
2022-11-17T17:51:11.283Z,97.31
2022-11-17T17:53:38.091Z,97.84
2022-11-17T17:56:06.508Z,98.42
2022-11-17T17:58:40.573Z,99.81
2022-11-17T18:01:10.537Z,99.29
2022-11-17T18:03:37.913Z,100.00
2022-11-17T18:06:04.527Z,100.00
2022-11-17T18:08:35.558Z,100.00
2022-11-17T18:11:02.970Z,100.00
2022-11-17T18:13:34.779Z,100.00
2022-11-17T18:16:14.696Z,100.00
2022-11-17T18:18:41.828Z,100.00
2022-11-17T18:21:09.572Z,100.00
2022-11-17T18:23:36.542Z,100.00
2022-11-17T18:26:09.772Z,100.00
2022-11-17T18:28:37.244Z,100.00
2022-11-17T18:31:04.693Z,100.00
2022-11-17T18:33:31.275Z,100.00
2022-11-17T18:36:02.551Z,100.00
2022-11-17T18:38:29.107Z,100.00
2022-11-17T18:41:02.660Z,100.00
2022-11-17T18:43:29.928Z,100.00
2022-11-17T18:46:00.287Z,100.00
2022-11-17T18:48:26.830Z,100.00
2022-11-17T18:51:18.273Z,100.00
2022-11-17T18:53:40.269Z,100.00
2022-11-17T18:56:11.614Z,100.00
2022-11-17T18:58:38.822Z,100.00
2022-11-17T19:01:07.282Z,100.00
2022-11-17T19:03:34.452Z,100.00
2022-11-17T19:06:01.293Z,100.00
2022-11-17T19:08:28.869Z,100.00
2022-11-17T19:10:55.546Z,100.00
2022-11-17T19:13:22.953Z,100.00
2022-11-17T19:15:49.991Z,100.00
2022-11-17T19:18:16.778Z,100.00
2022-11-17T19:20:43.788Z,100.00
2022-11-17T19:23:10.522Z,100.00
2022-11-17T19:25:38.248Z,100.00
2022-11-17T19:28:08.098Z,100.00
2022-11-17T19:30:34.892Z,100.00
2022-11-17T19:33:01.512Z,100.00
2022-11-17T19:35:28.267Z,100.00
2022-11-17T19:37:58.324Z,100.00
2022-11-17T19:40:24.875Z,100.00
2022-11-17T19:42:51.648Z,100.00
2022-11-17T19:45:18.205Z,100.00
2022-11-17T19:47:44.850Z,100.00
2022-11-17T19:50:11.720Z,100.00
2022-11-17T19:52:38.234Z,100.00
2022-11-17T19:55:04.940Z,100.00
2022-11-17T19:57:31.895Z,100.00
2022-11-17T19:59:58.408Z,100.00
2022-11-17T20:02:24.910Z,100.00
2022-11-17T20:04:51.550Z,100.00
2022-11-17T20:07:18.159Z,100.00
2022-11-17T20:09:44.725Z,100.00
2022-11-17T20:12:11.550Z,100.00
2022-11-17T20:14:38.211Z,100.00
2022-11-17T20:17:04.779Z,100.00
2022-11-17T20:19:31.302Z,100.00
2022-11-17T20:21:57.958Z,100.00
2022-11-17T20:24:24.464Z,100.00
2022-11-17T20:26:51.103Z,100.00
2022-11-17T20:29:17.943Z,100.00
2022-11-17T20:31:44.797Z,100.00
2022-11-17T20:34:12.105Z,100.00
2022-11-17T20:36:38.810Z,100.00
2022-11-17T20:39:06.560Z,100.00
2022-11-17T20:41:33.315Z,100.00
2022-11-17T20:44:00.607Z,100.00
2022-11-17T20:46:27.463Z,100.00
2022-11-17T20:48:54.350Z,100.00
2022-11-17T20:51:21.944Z,100.00
2022-11-17T20:53:48.555Z,100.00
2022-11-17T20:56:16.326Z,100.00
2022-11-17T20:58:42.965Z,100.00
2022-11-17T21:01:17.014Z,100.00
2022-11-17T21:03:44.093Z,100.00
2022-11-17T21:06:11.104Z,100.00
2022-11-17T21:08:38.398Z,100.00
2022-11-17T21:11:06.545Z,100.00
2022-11-17T21:13:33.702Z,100.00
2022-11-17T21:16:10.578Z,100.00
2022-11-17T21:18:38.365Z,100.00
2022-11-17T21:21:08.798Z,100.00
2022-11-17T21:23:36.391Z,100.00
2022-11-17T21:26:06.961Z,100.00
2022-11-17T21:28:34.375Z,100.00
2022-11-17T21:31:05.523Z,100.00
2022-11-17T21:33:32.049Z,100.00
2022-11-17T21:36:02.501Z,100.00
2022-11-17T21:38:30.109Z,100.00
2022-11-17T21:41:01.210Z,100.00
2022-11-17T21:43:27.753Z,100.00
2022-11-17T21:45:54.465Z,100.00
2022-11-17T21:48:21.162Z,100.00
2022-11-17T21:50:47.691Z,100.00
2022-11-17T21:53:14.236Z,100.00
2022-11-17T21:55:40.772Z,100.00
2022-11-17T21:58:07.349Z,100.00
2022-11-17T22:00:33.965Z,100.00
2022-11-17T22:03:00.608Z,100.00
2022-11-17T22:05:27.166Z,100.00
2022-11-17T22:07:53.778Z,100.00
2022-11-17T22:10:20.335Z,100.00
2022-11-17T22:12:46.835Z,100.00
2022-11-17T22:15:13.401Z,100.00
2022-11-17T22:17:39.887Z,100.00
2022-11-17T22:20:06.767Z,100.00
2022-11-17T22:22:33.640Z,100.00
2022-11-17T22:25:16.769Z,100.00
2022-11-17T22:27:46.684Z,100.00
2022-11-17T22:30:13.427Z,100.00
2022-11-17T22:32:45.021Z,100.00
2022-11-17T22:35:11.920Z,100.00
2022-11-17T22:37:38.568Z,100.00
2022-11-17T22:40:05.412Z,100.00
2022-11-17T22:42:32.002Z,100.00
2022-11-17T22:44:58.835Z,100.00
2022-11-17T22:47:25.386Z,100.00
2022-11-17T22:49:52.037Z,100.00
2022-11-17T22:52:18.651Z,100.00
2022-11-17T22:54:45.213Z,100.00
2022-11-17T22:57:11.817Z,100.00
2022-11-17T22:59:38.639Z,100.00
2022-11-17T23:02:05.535Z,100.00
2022-11-17T23:04:32.014Z,100.00
2022-11-17T23:06:58.629Z,100.00
2022-11-17T23:09:25.223Z,100.00
2022-11-17T23:11:53.072Z,100.00
2022-11-17T23:14:19.623Z,100.00
2022-11-17T23:16:46.201Z,100.00
2022-11-17T23:19:13.578Z,100.00
2022-11-17T23:21:40.404Z,100.00
2022-11-17T23:24:09.561Z,100.00
2022-11-17T23:26:36.381Z,100.00
2022-11-17T23:29:02.963Z,100.00
2022-11-17T23:31:29.562Z,100.00
2022-11-17T23:33:56.278Z,100.00
2022-11-17T23:36:23.243Z,100.00
2022-11-17T23:38:50.346Z,100.00
2022-11-17T23:41:19.504Z,100.00
2022-11-17T23:43:46.035Z,100.00
2022-11-17T23:46:13.897Z,100.00
2022-11-17T23:48:41.053Z,100.00
2022-11-17T23:51:11.468Z,100.00
2022-11-17T23:53:38.560Z,100.00
2022-11-17T23:56:05.869Z,100.00
2022-11-17T23:58:32.535Z,100.00
